Historyczne dane pomiarowe

Dodano dane terminowe – wersja testowa.

Dane z okresu 1951-2018

Wersja bazy: 1.29 [2019-01-10, lista zmian], aktualizacja planowana na 2019-02-07

Dane meteo z obszaru Polski uzyskane na podstawie danych udostępnionych przez Instytut Meteorologii i Gospodarki Wodnej – Państwowy Instytut Badawczy.

 

Wybierz Datę:    

       

TemperaturaWilgotnośćWiatrCiśnienieOpadyŚniegCzas trwania zjawisk
 Stacja t tx tn tng RH VA  wxwx mslp ppp RRR   cm mm wxwxwxwxwxwxwx
1990-12-13 0.5 1.4 -1.5 -4.2 90.0- 7.0 1.0---- 0.8------------
1990-12-13------------ 0.8--x---------
1990-12-14 0.5 1.2 -0.4 -0.8 92.8- 8.0 1.0---- 0.5-- 1---------
1990-12-14------------ 0.5--x---------
1990-12-15 0.0 0.6 -0.5 -0.5 95.5- 8.0 2.0---- 1.0------------
1990-12-15------------ 1.0--x---------
1990-12-16 -0.2 0.7 -1.0 -2.3 97.8- 8.0 1.7---- 2.2-- 1---------
1990-12-16------------ 2.2--x---------
1990-12-17 -0.9 0.1 -1.4 -2.5 96.5- 8.0 2.0---- 0.1-- 2---------
1990-12-17------------ 0.1--x---------
1990-12-18 -2.1 -0.7 -4.8 -7.1 94.8- 7.7 0.3---- 0.0-- 2---------
1990-12-18------------ 0.0--x---------
1990-12-19 -1.0 1.3 -3.2 -3.0 92.5- 8.0 0.3---- 0.0-- 3---------
1990-12-19------------ 0.0--x---------
1990-12-20 -1.6 1.0 -5.0 -8.4 81.8- 7.3 2.3---- 0.0-- 3---------
1990-12-20------------ 0.0--x---------
1990-12-21 -0.1 1.8 -1.9 -5.3 78.3- 7.3 3.3---- 0.8-- 3---------
1990-12-21------------ 0.8--x---------
1990-12-22 0.3 1.8 -1.5 -5.3 88.5- 8.0 1.0---- 0.0-- 4---------
1990-12-23 -3.2 1.6 -7.1-10.1 83.8- 1.0 0.3---- 0.0-- 4---------
1990-12-24 -5.5 0.7-12.1-13.7 77.8- 0.0 0.7---- 0.0-- 3---------
1990-12-25 0.0 3.5 -5.5-10.2 48.0- 0.0 3.0---- 0.0-- 2---------
1990-12-26 1.8 3.7 0.5 -5.2 60.0- 4.0 3.3---- 0.0-- 2---------
1990-12-27 4.8 7.6 2.0 -1.4 78.3- 2.0 5.7---- 0.0------------
1990-12-28 2.7 4.3 0.5 -2.3 80.5- 3.3 2.3---- 0.0------------
1990-12-29 2.0 3.9 0.0 -3.4 77.0- 4.7 4.7---- 0.0------------
1990-12-30 5.8 7.8 2.9 2.0 76.5- 7.7 2.0---- 0.1------------
1990-12-30------------ 0.1--x---------
1990-12-31 4.6 7.0 3.0 0.0 86.8- 4.7 2.3---- 0.5------------
1990-12-31------------ 0.5--x---------
1991-01-01 4.2 5.4 3.2 0.9 91.3- 8.0 0.7---- 0.5------------
1991-01-02 2.3 6.0 -0.4 -2.7 77.3- 3.3 2.7---- 3.9------------
1991-01-03 7.3 10.5 3.4 2.5 77.3- 7.7 3.3---- 0.5------------
1991-01-04 9.0 12.8 6.9 2.9 77.8- 2.7 2.0---- 1.1------------
1991-01-05 4.5 8.2 1.5 -2.3 78.3- 5.0 1.0---- 0.0------------
1991-01-06 4.1 6.2 1.5 -2.1 69.3- 4.7 4.7---- 0.0------------
1991-01-07 4.8 8.2 2.0 -0.5 65.5- 4.0 3.0---- 0.4------------
1991-01-08 6.2 8.8 4.5 1.5 71.8- 2.3 2.0---- 0.0------------
1991-01-09 6.5 9.5 4.9 2.0 70.8- 4.7 5.7---- 0.0------------
1991-01-10 9.3 14.3 4.9 2.5 71.8- 5.0 5.3---- 0.0------------
1991-01-11 10.2 15.1 8.4 7.4 71.5- 8.0 1.0---- 0.0------------
623.6 ms

 

Źródłem pochodzenia danych jest Instytut Meteorologii i Gospodarki Wodnej – Państwowy Instytut Badawczy. Dane Instytutu Meteorologii i Gospodarki Wodnej – Państwowego Instytutu Badawczego zostały przetworzone.

Dane źródłowe można odnaleźć na stronie https://dane.imgw.pl